Time;durP1;ratioP1;P1;durP2;ratioP2;P2;SDS_P1;SDS_P2;PMS_P1;PMS_P2;Temp;Humidity;BMP_temperature;BMP_pressure;BME280_temperature;BME280_humidity;BME280_pressure;Samples;Min_cycle;Max_cycle;Signal;HPM_P1;HPM_P2
2023/03/10 00:02:13;;;;;;;;;;;;;;;;;;5092517;28;20345;-66
2023/03/10 00:04:39;;;;;;;;;;;;;;;;;;5092127;28;20264;-66
2023/03/10 00:07:05;;;;;;;;;;;;;;;;;;5093948;28;20283;-66
2023/03/10 00:09:31;;;;;;;;;;;;;;;;;;5092522;28;20382;-66
2023/03/10 01:28:49;;;;;;;;;;;;;;;;;;4065784;28;20395;-67
2023/03/10 01:31:14;;;;;;;;;;;;;;;;;;5095022;28;19912;-67
2023/03/10 01:33:41;;;;;;;;;;;;;;;;;;5096348;28;19944;-67
2023/03/10 01:36:08;;;;;;;;;;;;;;;;;;5095902;28;19908;-66
2023/03/10 01:38:33;;;;;;;;;;;;;;;;;;5096243;28;19915;-66
2023/03/10 01:40:59;;;;;;;;;;;;;;;;;;5096154;28;20268;-66
2023/03/10 01:43:26;;;;;;;;;;;;;;;;;;5096095;28;20296;-66
2023/03/10 01:45:52;;;;;;;;;;;;;;;;;;5095879;28;19908;-66
2023/03/10 01:48:18;;;;;;;;;;;;;;;;;;5095848;28;19922;-66
2023/03/10 01:50:43;;;;;;;;;;;;;;;;;;5094281;28;19908;-67
2023/03/10 01:53:09;;;;;;;;;;;;;;;;;;5094592;28;19915;-66
2023/03/10 01:55:35;;;;;;;;;;;;;;;;;;5096374;28;19908;-66
2023/03/10 01:58:01;;;;;;;;;;;;;;;;;;5095365;28;19962;-66
2023/03/10 02:00:28;;;;;;;;;;;;;;;;;;5096171;28;20352;-66
2023/03/10 02:02:54;;;;;;;;;;;;;;;;;;5096274;28;19915;-66
2023/03/10 02:05:20;;;;;;;;;;;;;;;;;;5095361;28;19912;-66
2023/03/10 02:07:46;;;;;;;;;;;;;;;;;;5095764;28;19916;-66
2023/03/10 02:10:12;;;;;;;;;;;;;;;;;;5095756;28;20360;-66
2023/03/10 02:12:38;;;;;;;;;;;;;;;;;;5095070;28;20274;-66
2023/03/10 02:15:04;;;;;;;;;;;;;;;;;;5095478;28;20355;-66
2023/03/10 02:17:29;;;;;;;;;;;;;;;;;;5095411;28;19915;-66
2023/03/10 02:19:55;;;;;;;;;;;;;;;;;;5094995;28;19909;-66
2023/03/10 02:22:21;;;;;;;;;;;;;;;;;;5095302;28;19944;-66
2023/03/10 02:24:47;;;;;;;;;;;;;;;;;;5095231;28;19916;-66
2023/03/10 02:27:13;;;;;;;;;;;;;;;;;;5094703;28;19912;-66
2023/03/10 02:29:39;;;;;;;;;;;;;;;;;;5095024;28;20041;-67
2023/03/10 02:32:05;;;;;;;;;;;;;;;;;;5094744;28;19908;-67
2023/03/10 02:34:31;;;;;;;;;;;;;;;;;;5095174;28;19909;-67
2023/03/10 02:36:57;;;;;;;;;;;;;;;;;;5093732;28;19915;-66
2023/03/10 02:39:23;;;;;;;;;;;;;;;;;;5094603;28;19909;-66
2023/03/10 02:41:49;;;;;;;;;;;;;;;;;;5094842;28;19908;-66
2023/03/10 02:44:15;;;;;;;;;;;;;;;;;;5094812;28;19908;-66
2023/03/10 02:46:41;;;;;;;;;;;;;;;;;;5094512;28;20005;-66
2023/03/10 02:49:09;;;;;;;;;;;;;;;;;;5094762;28;19916;-66
2023/03/10 02:51:35;;;;;;;;;;;;;;;;;;5094764;28;20364;-67
2023/03/10 02:54:01;;;;;;;;;;;;;;;;;;5094416;28;19998;-66
2023/03/10 02:56:27;;;;;;;;;;;;;;;;;;5094464;28;19912;-67
2023/03/10 02:58:52;;;;;;;;;;;;;;;;;;5094596;28;19951;-67
2023/03/10 03:01:18;;;;;;;;;;;;;;;;;;5094258;28;19969;-66
2023/03/10 03:03:44;;;;;;;;;;;;;;;;;;5093282;28;19908;-66
2023/03/10 03:06:10;;;;;;;;;;;;;;;;;;5094530;28;19912;-66
2023/03/10 03:08:36;;;;;;;;;;;;;;;;;;5094107;28;20300;-66
2023/03/10 03:11:02;;;;;;;;;;;;;;;;;;5094452;28;20283;-67
2023/03/10 03:13:28;;;;;;;;;;;;;;;;;;5093187;28;19909;-67
2023/03/10 03:15:54;;;;;;;;;;;;;;;;;;5094011;28;19915;-67
2023/03/10 03:18:20;;;;;;;;;;;;;;;;;;5093047;28;19912;-67
2023/03/10 03:20:46;;;;;;;;;;;;;;;;;;5094238;28;19908;-65
2023/03/10 03:23:12;;;;;;;;;;;;;;;;;;5092625;28;19915;-66
2023/03/10 03:25:38;;;;;;;;;;;;;;;;;;5092987;28;19995;-66
2023/03/10 03:28:04;;;;;;;;;;;;;;;;;;5092811;28;20284;-66
2023/03/10 03:30:30;;;;;;;;;;;;;;;;;;5093617;28;19923;-66
2023/03/10 03:32:56;;;;;;;;;;;;;;;;;;5094073;28;19969;-66
2023/03/10 03:35:23;;;;;;;;;;;;;;;;;;5093707;28;19912;-66
2023/03/10 03:37:49;;;;;;;;;;;;;;;;;;5094063;28;20287;-66
2023/03/10 03:40:15;;;;;;;;;;;;;;;;;;5093996;28;20006;-66
2023/03/10 03:42:41;;;;;;;;;;;;;;;;;;5093610;28;19930;-66
2023/03/10 03:45:07;;;;;;;;;;;;;;;;;;5094490;28;19912;-66
2023/03/10 03:47:33;;;;;;;;;;;;;;;;;;5093826;28;19939;-66
2023/03/10 03:49:59;;;;;;;;;;;;;;;;;;5092304;28;19995;-67
2023/03/10 03:52:25;;;;;;;;;;;;;;;;;;5092621;28;20027;-67
2023/03/10 03:54:51;;;;;;;;;;;;;;;;;;5093914;28;20407;-66
2023/03/10 03:57:17;;;;;;;;;;;;;;;;;;5093475;28;19950;-67
2023/03/10 03:59:43;;;;;;;;;;;;;;;;;;5093823;28;19915;-67
2023/03/10 04:02:09;;;;;;;;;;;;;;;;;;5093787;28;19908;-67
2023/03/10 04:04:35;;;;;;;;;;;;;;;;;;5092436;28;19908;-66
2023/03/10 04:07:00;;;;;;;;;;;;;;;;;;5093755;28;19923;-66
2023/03/10 04:09:27;;;;;;;;;;;;;;;;;;5095466;28;19911;-66
2023/03/10 04:11:53;;;;;;;;;;;;;;;;;;5097524;28;20275;-66
2023/03/10 04:14:19;;;;;;;;;;;;;;;;;;5098242;28;19908;-66
2023/03/10 04:16:45;;;;;;;;;;;;;;;;;;5097793;28;19952;-65
2023/03/10 04:19:11;;;;;;;;;;;;;;;;;;5097418;28;19908;-66
2023/03/10 04:21:37;;;;;;;;;;;;;;;;;;5097707;28;20003;-66
2023/03/10 04:24:03;;;;;;;;;;;;;;;;;;5097607;28;19908;-67
2023/03/10 04:26:29;;;;;;;;;;;;;;;;;;5097253;28;19908;-67
2023/03/10 04:28:55;;;;;;;;;;;;;;;;;;5096089;28;19920;-66
2023/03/10 04:31:21;;;;;;;;;;;;;;;;;;5098063;28;20409;-67
2023/03/10 04:33:47;;;;;;;;;;;;;;;;;;5097094;28;20360;-66
2023/03/10 04:36:12;;;;;;;;;;;;;;;;;;5096109;28;19908;-66
2023/03/10 04:38:38;;;;;;;;;;;;;;;;;;5096974;28;19953;-66
2023/03/10 04:41:04;;;;;;;;;;;;;;;;;;5097292;28;19974;-66
2023/03/10 04:43:30;;;;;;;;;;;;;;;;;;5097247;28;19912;-67
2023/03/10 04:45:56;;;;;;;;;;;;;;;;;;5096799;28;19918;-66
2023/03/10 04:48:23;;;;;;;;;;;;;;;;;;5095809;28;19966;-66
2023/03/10 04:50:49;;;;;;;;;;;;;;;;;;5097107;28;19908;-66
2023/03/10 04:53:15;;;;;;;;;;;;;;;;;;5095364;28;19931;-67
2023/03/10 04:55:41;;;;;;;;;;;;;;;;;;5096973;28;19955;-66
2023/03/10 04:58:06;;;;;;;;;;;;;;;;;;5095631;28;19961;-67
2023/03/10 05:00:32;;;;;;;;;;;;;;;;;;5096534;28;19959;-67
2023/03/10 05:02:58;;;;;;;;;;;;;;;;;;5096802;28;19991;-67
2023/03/10 05:05:24;;;;;;;;;;;;;;;;;;5095633;28;19909;-66
2023/03/10 05:07:50;;;;;;;;;;;;;;;;;;5096363;28;19927;-67
2023/03/10 05:10:16;;;;;;;;;;;;;;;;;;5096982;28;20376;-67
2023/03/10 05:12:42;;;;;;;;;;;;;;;;;;5096757;28;20522;-66
2023/03/10 05:15:08;;;;;;;;;;;;;;;;;;5096325;28;20280;-67
2023/03/10 05:17:34;;;;;;;;;;;;;;;;;;5096515;28;20049;-66
2023/03/10 05:20:00;;;;;;;;;;;;;;;;;;5096334;28;19927;-67
2023/03/10 05:22:26;;;;;;;;;;;;;;;;;;5096091;28;19908;-66
2023/03/10 05:24:52;;;;;;;;;;;;;;;;;;5095182;28;19912;-67
2023/03/10 05:27:20;;;;;;;;;;;;;;;;;;5096279;28;20014;-66
2023/03/10 05:29:46;;;;;;;;;;;;;;;;;;5095773;28;19943;-66
2023/03/10 05:32:12;;;;;;;;;;;;;;;;;;5096808;28;20344;-67
2023/03/10 05:34:38;;;;;;;;;;;;;;;;;;5096162;28;19961;-66
2023/03/10 05:37:04;;;;;;;;;;;;;;;;;;5095801;28;19908;-66
2023/03/10 05:39:30;;;;;;;;;;;;;;;;;;5096226;28;19957;-66
2023/03/10 05:41:56;;;;;;;;;;;;;;;;;;5096027;28;19908;-67
2023/03/10 05:44:22;;;;;;;;;;;;;;;;;;5094939;28;19958;-66
2023/03/10 05:46:48;;;;;;;;;;;;;;;;;;5093439;28;19908;-66
2023/03/10 05:49:14;;;;;;;;;;;;;;;;;;5094558;28;19920;-66
2023/03/10 05:51:39;;;;;;;;;;;;;;;;;;5096077;28;20007;-66
2023/03/10 05:54:05;;;;;;;;;;;;;;;;;;5095429;28;19908;-66
2023/03/10 05:56:31;;;;;;;;;;;;;;;;;;5093972;28;19915;-65
2023/03/10 05:58:57;;;;;;;;;;;;;;;;;;5095910;28;19908;-67
2023/03/10 06:01:23;;;;;;;;;;;;;;;;;;5095680;28;19912;-67
2023/03/10 06:03:49;;;;;;;;;;;;;;;;;;5094363;28;19908;-67
2023/03/10 06:06:15;;;;;;;;;;;;;;;;;;5093615;28;20452;-67
2023/03/10 06:08:41;;;;;;;;;;;;;;;;;;5093417;28;20429;-73
2023/03/10 06:11:07;;;;;;;;;;;;;;;;;;5090466;28;19908;-72
2023/03/10 06:13:33;;;;;;;;;;;;;;;;;;5091198;28;19915;-73
2023/03/10 06:15:59;;;;;;;;;;;;;;;;;;5092815;28;20364;-67
2023/03/10 06:18:25;;;;;;;;;;;;;;;;;;5092387;28;20367;-67
2023/03/10 06:20:54;;;;;;;;;;;;;;;;;;5093152;28;19912;-68
2023/03/10 06:23:20;;;;;;;;;;;;;;;;;;5094485;28;19961;-67
2023/03/10 06:25:46;;;;;;;;;;;;;;;;;;5096602;28;19908;-63
2023/03/10 06:28:12;;;;;;;;;;;;;;;;;;5093558;28;20011;-66
2023/03/10 06:30:38;;;;;;;;;;;;;;;;;;5093685;28;19916;-66
2023/03/10 06:33:04;;;;;;;;;;;;;;;;;;5110510;28;19912;-64
2023/03/10 06:35:30;;;;;;;;;;;;;;;;;;5105318;28;19942;-64
2023/03/10 06:37:56;;;;;;;;;;;;;;;;;;5092113;28;19908;-66
2023/03/10 06:40:22;;;;;;;;;;;;;;;;;;5092400;28;19915;-65
2023/03/10 06:42:47;;;;;;;;;;;;;;;;;;5087183;28;19916;-65
2023/03/10 06:45:13;;;;;;;;;;;;;;;;;;5089619;28;20514;-66
2023/03/10 06:47:39;;;;;;;;;;;;;;;;;;5090235;28;20320;-67
2023/03/10 06:50:05;;;;;;;;;;;;;;;;;;5089129;28;20352;-67
2023/03/10 06:52:31;;;;;;;;;;;;;;;;;;5089530;28;19919;-66
2023/03/10 06:54:57;;;;;;;;;;;;;;;;;;5088997;28;19911;-65
2023/03/10 06:57:23;;;;;;;;;;;;;;;;;;5090834;28;20014;-64
2023/03/10 06:59:49;;;;;;;;;;;;;;;;;;5088319;28;19908;-68
2023/03/10 07:02:15;;;;;;;;;;;;;;;;;;5113996;27;19920;-67
2023/03/10 07:04:41;;;;;;;;;;;;;;;;;;5082127;28;19944;-66
2023/03/10 07:07:07;;;;;;;;;;;;;;;;;;5082708;28;19916;-67
2023/03/10 07:09:33;;;;;;;;;;;;;;;;;;5086706;28;19928;-68
2023/03/10 07:11:59;;;;;;;;;;;;;;;;;;5088360;28;19918;-68
2023/03/10 07:14:25;;;;;;;;;;;;;;;;;;5085262;28;19912;-68
2023/03/10 07:16:51;;;;;;;;;;;;;;;;;;5089770;28;19908;-68
2023/03/10 07:19:17;;;;;;;;;;;;;;;;;;5087857;28;19912;-67
2023/03/10 07:21:43;;;;;;;;;;;;;;;;;;5085814;28;19962;-64
2023/03/10 07:24:09;;;;;;;;;;;;;;;;;;5091010;28;19916;-65
2023/03/10 07:26:35;;;;;;;;;;;;;;;;;;5085375;28;19919;-66
2023/03/10 07:29:01;;;;;;;;;;;;;;;;;;5086170;28;20756;-67
2023/03/10 07:31:27;;;;;;;;;;;;;;;;;;5085667;28;19923;-67
2023/03/10 07:33:53;;;;;;;;;;;;;;;;;;5083901;28;19916;-66
2023/03/10 07:36:19;;;;;;;;;;;;;;;;;;5086413;28;19912;-67
2023/03/10 07:38:45;;;;;;;;;;;;;;;;;;5053159;28;19917;-68
2023/03/10 07:41:12;;;;;;;;;;;;;;;;;;5069391;28;20003;-67
2023/03/10 07:43:38;;;;;;;;;;;;;;;;;;5069840;28;20336;-68
2023/03/10 07:46:03;;;;;;;;;;;;;;;;;;5071063;28;19912;-68
2023/03/10 07:48:29;;;;;;;;;;;;;;;;;;5061702;28;20062;-68
2023/03/10 07:50:55;;;;;;;;;;;;;;;;;;5058931;28;19912;-68
2023/03/10 07:53:24;;;;;;;;;;;;;;;;;;5056335;28;20453;-66
2023/03/10 07:55:49;;;;;;;;;;;;;;;;;;5037870;28;20772;-66
2023/03/10 07:58:15;;;;;;;;;;;;;;;;;;5065868;28;19939;-67
2023/03/10 08:00:41;;;;;;;;;;;;;;;;;;5071510;28;20356;-66
2023/03/10 08:03:07;;;;;;;;;;;;;;;;;;5070769;28;19908;-66
2023/03/10 08:05:33;;;;;;;;;;;;;;;;;;5089122;28;20412;-66
2023/03/10 08:07:59;;;;;;;;;;;;;;;;;;5089854;28;20332;-66
2023/03/10 08:10:25;;;;;;;;;;;;;;;;;;5068947;28;19912;-65
2023/03/10 08:12:52;;;;;;;;;;;;;;;;;;5089184;28;19908;-67
2023/03/10 08:15:17;;;;;;;;;;;;;;;;;;5050293;28;19913;-67
2023/03/10 08:17:43;;;;;;;;;;;;;;;;;;5085100;28;19919;-68
2023/03/10 08:20:09;;;;;;;;;;;;;;;;;;5080148;28;19991;-67
2023/03/10 08:22:35;;;;;;;;;;;;;;;;;;5064034;28;20105;-68
2023/03/10 08:25:01;;;;;;;;;;;;;;;;;;5046004;28;20322;-66
2023/03/10 08:27:27;;;;;;;;;;;;;;;;;;5064789;28;19928;-68
2023/03/10 08:29:53;;;;;;;;;;;;;;;;;;5076704;28;20356;-67
2023/03/10 08:32:19;;;;;;;;;;;;;;;;;;5091728;28;19912;-66
2023/03/10 08:34:45;;;;;;;;;;;;;;;;;;5108000;28;19915;-66
2023/03/10 08:37:11;;;;;;;;;;;;;;;;;;5109834;28;19908;-67
2023/03/10 08:39:37;;;;;;;;;;;;;;;;;;5108671;28;19915;-68
2023/03/10 08:42:03;;;;;;;;;;;;;;;;;;5108870;28;20022;-68
2023/03/10 08:44:29;;;;;;;;;;;;;;;;;;5109284;28;19916;-68
2023/03/10 08:46:55;;;;;;;;;;;;;;;;;;5099199;28;19908;-67
2023/03/10 08:49:21;;;;;;;;;;;;;;;;;;5107338;28;19923;-67
2023/03/10 08:51:47;;;;;;;;;;;;;;;;;;5107790;28;19926;-67
2023/03/10 08:54:13;;;;;;;;;;;;;;;;;;5111856;28;19907;-67
2023/03/10 08:56:39;;;;;;;;;;;;;;;;;;5097156;28;19915;-67
2023/03/10 08:59:05;;;;;;;;;;;;;;;;;;5092019;28;19952;-67
2023/03/10 09:01:31;;;;;;;;;;;;;;;;;;5098741;28;19982;-67
2023/03/10 09:03:56;;;;;;;;;;;;;;;;;;5080195;28;19908;-67
2023/03/10 09:06:22;;;;;;;;;;;;;;;;;;5092691;28;20007;-67
2023/03/10 09:08:49;;;;;;;;;;;;;;;;;;5093349;28;19916;-68
2023/03/10 09:11:15;;;;;;;;;;;;;;;;;;5092990;28;19908;-69
2023/03/10 09:13:41;;;;;;;;;;;;;;;;;;5094032;28;19922;-69
2023/03/10 09:16:12;;;;;;;;;;;;;;;;;;5095010;28;19958;-68
2023/03/10 09:18:38;;;;;;;;;;;;;;;;;;5095703;28;19912;-69
2023/03/10 09:21:04;;;;;;;;;;;;;;;;;;5091783;28;20264;-69
2023/03/10 09:23:30;;;;;;;;;;;;;;;;;;5092426;28;19920;-68
2023/03/10 09:25:57;;;;;;;;;;;;;;;;;;5095921;28;19990;-68
2023/03/10 09:28:23;;;;;;;;;;;;;;;;;;5093392;28;19923;-68
2023/03/10 09:30:49;;;;;;;;;;;;;;;;;;5089957;28;19908;-68
2023/03/10 09:33:19;;;;;;;;;;;;;;;;;;5075224;28;19908;-68
2023/03/10 09:35:45;;;;;;;;;;;;;;;;;;5092720;28;19912;-68
2023/03/10 09:38:11;;;;;;;;;;;;;;;;;;5092735;28;20301;-68
2023/03/10 09:40:39;;;;;;;;;;;;;;;;;;5086092;28;19909;-69
2023/03/10 09:43:04;;;;;;;;;;;;;;;;;;5073699;28;19958;-67
2023/03/10 09:45:31;;;;;;;;;;;;;;;;;;5049876;28;20283;-67
2023/03/10 09:47:56;;;;;;;;;;;;;;;;;;5052202;28;19916;-68
2023/03/10 09:50:22;;;;;;;;;;;;;;;;;;5071558;28;19913;-68
2023/03/10 09:52:49;;;;;;;;;;;;;;;;;;5070887;28;19908;-68
2023/03/10 09:55:15;;;;;;;;;;;;;;;;;;5071455;28;20386;-67
2023/03/10 09:57:41;;;;;;;;;;;;;;;;;;5048490;28;19916;-69
2023/03/10 10:00:07;;;;;;;;;;;;;;;;;;5040968;28;19963;-68
2023/03/10 10:02:33;;;;;;;;;;;;;;;;;;5040371;28;20034;-69
2023/03/10 10:04:59;;;;;;;;;;;;;;;;;;5061439;28;19908;-69
2023/03/10 10:07:25;;;;;;;;;;;;;;;;;;5047246;28;19962;-68
2023/03/10 10:09:52;;;;;;;;;;;;;;;;;;5067913;28;19909;-69
2023/03/10 10:12:18;;;;;;;;;;;;;;;;;;5050670;28;19919;-69
2023/03/10 10:14:44;;;;;;;;;;;;;;;;;;5050721;28;19909;-69
2023/03/10 10:17:10;;;;;;;;;;;;;;;;;;5051400;28;19913;-71
2023/03/10 10:19:38;;;;;;;;;;;;;;;;;;5077829;28;19908;-67
2023/03/10 10:22:04;;;;;;;;;;;;;;;;;;5089974;28;19908;-66
2023/03/10 10:24:30;;;;;;;;;;;;;;;;;;5079646;28;19936;-68
2023/03/10 10:27:00;;;;;;;;;;;;;;;;;;5056242;28;19995;-68
2023/03/10 10:29:26;;;;;;;;;;;;;;;;;;5088533;28;19920;-69
2023/03/10 10:31:52;;;;;;;;;;;;;;;;;;5079040;28;19912;-68
2023/03/10 10:34:18;;;;;;;;;;;;;;;;;;5068633;28;20296;-69
2023/03/10 10:36:44;;;;;;;;;;;;;;;;;;5064191;28;20011;-68
2023/03/10 10:39:10;;;;;;;;;;;;;;;;;;5069741;28;19912;-67
2023/03/10 10:41:36;;;;;;;;;;;;;;;;;;5067826;28;19916;-68
2023/03/10 10:44:02;;;;;;;;;;;;;;;;;;5078603;28;20396;-68
2023/03/10 10:46:28;;;;;;;;;;;;;;;;;;5070679;28;20000;-68
2023/03/10 10:48:54;;;;;;;;;;;;;;;;;;5069787;28;19916;-67
2023/03/10 10:51:20;;;;;;;;;;;;;;;;;;5072955;28;19961;-68
2023/03/10 10:53:46;;;;;;;;;;;;;;;;;;5048186;28;19912;-68
2023/03/10 10:56:12;;;;;;;;;;;;;;;;;;5067046;28;19909;-68
2023/03/10 10:58:38;;;;;;;;;;;;;;;;;;5043694;28;19909;-68
2023/03/10 11:01:04;;;;;;;;;;;;;;;;;;5065707;28;20008;-68
2023/03/10 11:03:30;;;;;;;;;;;;;;;;;;5073225;28;19919;-67
2023/03/10 11:05:56;;;;;;;;;;;;;;;;;;5071488;28;19912;-67
2023/03/10 11:08:22;;;;;;;;;;;;;;;;;;5089572;28;19927;-67
2023/03/10 11:10:48;;;;;;;;;;;;;;;;;;5052521;28;19919;-67
2023/03/10 11:13:15;;;;;;;;;;;;;;;;;;5052787;28;19916;-66
2023/03/10 11:15:41;;;;;;;;;;;;;;;;;;5070120;28;19916;-66
2023/03/10 11:18:09;;;;;;;;;;;;;;;;;;5088057;28;20427;-67
2023/03/10 11:20:35;;;;;;;;;;;;;;;;;;5073586;28;19919;-67
2023/03/10 11:23:02;;;;;;;;;;;;;;;;;;5071978;28;19908;-67
2023/03/10 11:25:28;;;;;;;;;;;;;;;;;;5091157;28;19965;-67
2023/03/10 11:27:54;;;;;;;;;;;;;;;;;;5073619;28;19916;-67
2023/03/10 11:30:21;;;;;;;;;;;;;;;;;;5091342;28;19950;-68
2023/03/10 11:32:48;;;;;;;;;;;;;;;;;;5084019;28;19912;-68
2023/03/10 11:36:56;;;;;;;;;;;;;;;;;;5129993;27;19918;-67
2023/03/10 11:39:22;;;;;;;;;;;;;;;;;;5127534;28;19965;-68
2023/03/10 11:42:08;;;;;;;;;;;;;;;;;;5148826;27;19917;-66
2023/03/10 11:44:34;;;;;;;;;;;;;;;;;;5149910;27;19912;-68
2023/03/10 11:47:48;;;;;;;;;;;;;;;;;;5086478;27;19919;-67
2023/03/10 11:50:14;;;;;;;;;;;;;;;;;;5079114;28;20000;-67
2023/03/10 11:52:40;;;;;;;;;;;;;;;;;;5082496;28;20003;-67
2023/03/10 11:55:06;;;;;;;;;;;;;;;;;;5085752;28;19917;-67
2023/03/10 11:58:01;;;;;;;;;;;;;;;;;;5151851;27;19911;-68
2023/03/10 12:01:27;;;;;;;;;;;;;;;;;;5068994;28;19923;-67
2023/03/10 12:03:53;;;;;;;;;;;;;;;;;;5069395;28;19912;-69
2023/03/10 12:06:19;;;;;;;;;;;;;;;;;;5053316;28;19909;-67
2023/03/10 12:08:45;;;;;;;;;;;;;;;;;;5063504;28;19912;-67
2023/03/10 12:11:11;;;;;;;;;;;;;;;;;;5055651;28;20365;-67
2023/03/10 12:13:37;;;;;;;;;;;;;;;;;;5049925;28;20250;-66
2023/03/10 12:16:03;;;;;;;;;;;;;;;;;;5049685;28;19966;-66
2023/03/10 12:18:29;;;;;;;;;;;;;;;;;;5066471;28;19908;-66
2023/03/10 12:20:55;;;;;;;;;;;;;;;;;;5066927;28;19959;-66
2023/03/10 12:23:21;;;;;;;;;;;;;;;;;;5066607;28;20348;-66
2023/03/10 12:25:47;;;;;;;;;;;;;;;;;;5066170;28;19951;-67
2023/03/10 12:28:13;;;;;;;;;;;;;;;;;;5066916;28;19909;-67
2023/03/10 12:30:39;;;;;;;;;;;;;;;;;;5066153;28;20332;-68
2023/03/10 12:33:04;;;;;;;;;;;;;;;;;;5063389;28;19913;-67
2023/03/10 12:36:15;;;;;;;;;;;;;;;;;;5066424;28;19919;-65
2023/03/10 12:40:09;;;;;;;;;;;;;;;;;;5088545;27;19912;-66
2023/03/10 12:42:35;;;;;;;;;;;;;;;;;;5088582;28;19912;-65
2023/03/10 12:45:47;;;;;;;;;;;;;;;;;;5170292;27;19921;-66
2023/03/10 12:48:52;;;;;;;;;;;;;;;;;;5087376;27;19917;-66
2023/03/10 12:55:07;;;;;;;;;;;;;;;;;;5088546;27;19921;-66
2023/03/10 12:59:18;;;;;;;;;;;;;;;;;;5087149;27;19917;-66
2023/03/10 13:01:48;;;;;;;;;;;;;;;;;;5088201;28;19923;-67
2023/03/10 13:04:14;;;;;;;;;;;;;;;;;;5089398;28;19915;-67
2023/03/10 13:06:51;;;;;;;;;;;;;;;;;;5088906;27;19917;-66
2023/03/10 13:09:17;;;;;;;;;;;;;;;;;;5090070;28;19919;-67
2023/03/10 13:11:44;;;;;;;;;;;;;;;;;;5089070;28;20372;-65
2023/03/10 13:14:10;;;;;;;;;;;;;;;;;;5084638;28;19913;-66
2023/03/10 13:16:35;;;;;;;;;;;;;;;;;;5088552;28;19962;-66
2023/03/10 13:19:02;;;;;;;;;;;;;;;;;;5090326;28;19913;-65
2023/03/10 13:21:28;;;;;;;;;;;;;;;;;;5089199;28;20341;-66
2023/03/10 13:23:54;;;;;;;;;;;;;;;;;;5088449;28;20315;-64
2023/03/10 13:26:20;;;;;;;;;;;;;;;;;;5088554;28;19917;-65
2023/03/10 13:28:46;;;;;;;;;;;;;;;;;;5089640;28;19915;-66
2023/03/10 13:31:16;;;;;;;;;;;;;;;;;;5089693;28;20383;-70
2023/03/10 13:33:41;;;;;;;;;;;;;;;;;;5088213;28;19963;-66
2023/03/10 13:36:07;;;;;;;;;;;;;;;;;;5090371;28;19962;-66
2023/03/10 13:38:33;;;;;;;;;;;;;;;;;;5089904;28;19909;-65
2023/03/10 13:40:59;;;;;;;;;;;;;;;;;;5088594;28;19916;-65
2023/03/10 13:43:25;;;;;;;;;;;;;;;;;;5089474;28;20011;-65
2023/03/10 13:53:29;;;;;;;;;;;;;;;;;;4824263;27;8109214;-67
2023/03/10 13:57:10;;;;;;;;;;;;;;;;;;4806377;27;9166471;-66
2023/03/10 13:59:49;;;;;;;;;;;;;;;;;;4960053;27;4373780;-68
2023/03/10 14:02:15;;;;;;;;;;;;;;;;;;5108322;28;19969;-67
2023/03/10 14:04:41;;;;;;;;;;;;;;;;;;5089984;28;19933;-66
2023/03/10 14:07:07;;;;;;;;;;;;;;;;;;5108255;28;19915;-66
2023/03/10 14:09:33;;;;;;;;;;;;;;;;;;5108569;28;19908;-66
2023/03/10 14:12:49;;;;;;;;;;;;;;;;;;5088466;27;20272;-66
2023/03/10 14:17:46;;;;;;;;;;;;;;;;;;5088262;27;19913;-67
2023/03/10 14:20:11;;;;;;;;;;;;;;;;;;5088652;28;19913;-66
2023/03/10 14:22:40;;;;;;;;;;;;;;;;;;5087407;28;20368;-67
2023/03/10 14:26:39;;;;;;;;;;;;;;;;;;5088647;28;20385;-67
2023/03/10 14:29:05;;;;;;;;;;;;;;;;;;5089103;28;19918;-67
2023/03/10 14:34:21;;;;;;;;;;;;;;;;;;5092213;27;19916;-66
2023/03/10 14:36:47;;;;;;;;;;;;;;;;;;5090925;28;20011;-66
2023/03/10 14:41:17;;;;;;;;;;;;;;;;;;5090971;27;19917;-65
2023/03/10 14:43:43;;;;;;;;;;;;;;;;;;5087528;28;19919;-65
2023/03/10 14:46:09;;;;;;;;;;;;;;;;;;5089897;28;19962;-65
2023/03/10 14:50:36;;;;;;;;;;;;;;;;;;5090671;27;19916;-67
2023/03/10 14:53:02;;;;;;;;;;;;;;;;;;5090166;28;20003;-65
2023/03/10 14:55:28;;;;;;;;;;;;;;;;;;5091801;28;20356;-65
2023/03/10 14:57:54;;;;;;;;;;;;;;;;;;5090906;28;20335;-65
2023/03/10 15:00:19;;;;;;;;;;;;;;;;;;5091336;28;20306;-65
2023/03/10 15:02:46;;;;;;;;;;;;;;;;;;5091141;28;20326;-66
2023/03/10 15:17:45;;;;;;;;;;;;;;;;;;5092085;27;19922;-67
2023/03/10 15:21:55;;;;;;;;;;;;;;;;;;5091971;28;19922;-68
2023/03/10 15:24:21;;;;;;;;;;;;;;;;;;5091291;28;19995;-65
2023/03/10 15:26:47;;;;;;;;;;;;;;;;;;5090889;28;19951;-67
2023/03/10 15:29:13;;;;;;;;;;;;;;;;;;5089953;28;20337;-67
2023/03/10 15:31:39;;;;;;;;;;;;;;;;;;5091199;28;20296;-67
2023/03/10 15:34:06;;;;;;;;;;;;;;;;;;5090815;28;19919;-67
2023/03/10 15:37:59;;;;;;;;;;;;;;;;;;5112529;27;19923;-65
2023/03/10 15:40:24;;;;;;;;;;;;;;;;;;5111335;28;20351;-66
2023/03/10 15:45:05;;;;;;;;;;;;;;;;;;5092096;27;20356;-66
2023/03/10 15:47:31;;;;;;;;;;;;;;;;;;5091304;28;20383;-67
2023/03/10 15:51:01;;;;;;;;;;;;;;;;;;5092151;27;19912;-67
2023/03/10 15:54:44;;;;;;;;;;;;;;;;;;5091092;27;20406;-67
2023/03/10 15:57:10;;;;;;;;;;;;;;;;;;5090127;28;19995;-67
2023/03/10 15:59:36;;;;;;;;;;;;;;;;;;5091300;28;19949;-67
2023/03/10 16:02:02;;;;;;;;;;;;;;;;;;5090875;28;20002;-64
2023/03/10 16:10:07;;;;;;;;;;;;;;;;;;5132416;27;19922;-67
2023/03/10 16:13:49;;;;;;;;;;;;;;;;;;5153431;27;19917;-65
2023/03/10 16:18:30;;;;;;;;;;;;;;;;;;5092188;27;19923;-67
2023/03/10 16:20:57;;;;;;;;;;;;;;;;;;5091335;28;19912;-67
2023/03/10 16:23:52;;;;;;;;;;;;;;;;;;5091108;27;19916;-67
2023/03/10 16:26:18;;;;;;;;;;;;;;;;;;5091312;28;19913;-66
2023/03/10 16:29:44;;;;;;;;;;;;;;;;;;5091278;27;19913;-67
2023/03/10 16:32:10;;;;;;;;;;;;;;;;;;5091742;28;19916;-67
2023/03/10 16:34:36;;;;;;;;;;;;;;;;;;5089872;28;19909;-67
2023/03/10 16:37:02;;;;;;;;;;;;;;;;;;5089512;28;19908;-67
2023/03/10 16:39:31;;;;;;;;;;;;;;;;;;5091178;28;20257;-67
2023/03/10 16:41:57;;;;;;;;;;;;;;;;;;5091388;28;19961;-67
2023/03/10 16:44:23;;;;;;;;;;;;;;;;;;5090488;28;19912;-67
2023/03/10 16:46:49;;;;;;;;;;;;;;;;;;5089425;28;19908;-67
2023/03/10 16:49:16;;;;;;;;;;;;;;;;;;5090776;28;19917;-67
2023/03/10 16:51:42;;;;;;;;;;;;;;;;;;5089462;28;19916;-65
2023/03/10 16:54:08;;;;;;;;;;;;;;;;;;5091287;28;19908;-65
2023/03/10 16:56:34;;;;;;;;;;;;;;;;;;5090809;28;20007;-67
2023/03/10 16:59:00;;;;;;;;;;;;;;;;;;5090507;28;19912;-66
2023/03/10 17:01:25;;;;;;;;;;;;;;;;;;5090802;28;19908;-66
2023/03/10 17:03:51;;;;;;;;;;;;;;;;;;5090749;28;20421;-66
2023/03/10 17:06:18;;;;;;;;;;;;;;;;;;5090116;28;19991;-66
2023/03/10 17:08:44;;;;;;;;;;;;;;;;;;5090574;28;19920;-67
2023/03/10 17:11:10;;;;;;;;;;;;;;;;;;5090156;28;19912;-66
2023/03/10 17:13:37;;;;;;;;;;;;;;;;;;5090704;28;19908;-67
2023/03/10 17:16:03;;;;;;;;;;;;;;;;;;5090464;28;19913;-66
2023/03/10 17:18:29;;;;;;;;;;;;;;;;;;5089777;28;19912;-67
2023/03/10 17:20:55;;;;;;;;;;;;;;;;;;5090378;28;19909;-65
2023/03/10 17:23:22;;;;;;;;;;;;;;;;;;5090990;28;20030;-67
2023/03/10 17:25:48;;;;;;;;;;;;;;;;;;5089895;28;19913;-67
2023/03/10 17:28:14;;;;;;;;;;;;;;;;;;5088843;28;19920;-67
2023/03/10 17:30:40;;;;;;;;;;;;;;;;;;5090353;28;19962;-67
2023/03/10 17:33:06;;;;;;;;;;;;;;;;;;5089906;28;20284;-68
2023/03/10 17:35:32;;;;;;;;;;;;;;;;;;5090181;28;20287;-68
2023/03/10 17:37:58;;;;;;;;;;;;;;;;;;5090343;28;20284;-67
2023/03/10 17:40:24;;;;;;;;;;;;;;;;;;5079832;28;20361;-67
2023/03/10 17:42:50;;;;;;;;;;;;;;;;;;5076813;28;19999;-67
2023/03/10 17:45:16;;;;;;;;;;;;;;;;;;5076461;28;20400;-65
2023/03/10 17:47:42;;;;;;;;;;;;;;;;;;5076021;28;20352;-67
2023/03/10 17:50:07;;;;;;;;;;;;;;;;;;5076532;28;20334;-67
2023/03/10 17:52:33;;;;;;;;;;;;;;;;;;5075066;28;19961;-67
2023/03/10 17:54:59;;;;;;;;;;;;;;;;;;5076034;28;19948;-67
2023/03/10 17:57:25;;;;;;;;;;;;;;;;;;5076204;28;20304;-67
2023/03/10 17:59:51;;;;;;;;;;;;;;;;;;5076264;28;19908;-65
2023/03/10 18:02:17;;;;;;;;;;;;;;;;;;5074390;28;20005;-66
2023/03/10 18:04:47;;;;;;;;;;;;;;;;;;5076166;28;19909;-66
2023/03/10 18:07:13;;;;;;;;;;;;;;;;;;5075983;28;19942;-66
2023/03/10 18:09:39;;;;;;;;;;;;;;;;;;5075689;28;19912;-66
2023/03/10 18:12:05;;;;;;;;;;;;;;;;;;5076014;28;19908;-66
2023/03/10 18:14:31;;;;;;;;;;;;;;;;;;5076041;28;19958;-66
2023/03/10 18:16:57;;;;;;;;;;;;;;;;;;5075894;28;20361;-66
2023/03/10 18:19:23;;;;;;;;;;;;;;;;;;5074199;28;19912;-65
2023/03/10 18:21:49;;;;;;;;;;;;;;;;;;5075410;28;20659;-65
2023/03/10 18:24:15;;;;;;;;;;;;;;;;;;5075865;28;19975;-65
2023/03/10 18:26:44;;;;;;;;;;;;;;;;;;5075634;28;19943;-66
2023/03/10 18:29:10;;;;;;;;;;;;;;;;;;5091305;28;20003;-66
2023/03/10 18:31:37;;;;;;;;;;;;;;;;;;5095805;28;19923;-66
2023/03/10 18:34:03;;;;;;;;;;;;;;;;;;5095821;28;19948;-66
2023/03/10 18:36:29;;;;;;;;;;;;;;;;;;5095426;28;20279;-65
2023/03/10 18:38:55;;;;;;;;;;;;;;;;;;5095665;28;19908;-65
2023/03/10 18:41:21;;;;;;;;;;;;;;;;;;5095482;28;19912;-65
2023/03/10 18:43:46;;;;;;;;;;;;;;;;;;5095207;28;19908;-65
2023/03/10 18:46:12;;;;;;;;;;;;;;;;;;5095444;28;19909;-66
2023/03/10 18:48:38;;;;;;;;;;;;;;;;;;5095427;28;20382;-65
2023/03/10 18:51:04;;;;;;;;;;;;;;;;;;5076017;28;20354;-65
2023/03/10 18:53:30;;;;;;;;;;;;;;;;;;5095328;28;19918;-66
2023/03/10 18:55:56;;;;;;;;;;;;;;;;;;5077063;28;19908;-65
2023/03/10 18:58:22;;;;;;;;;;;;;;;;;;5094743;28;19934;-65
2023/03/10 19:00:48;;;;;;;;;;;;;;;;;;5095292;28;19931;-65